Time;durP1;ratioP1;P1;durP2;ratioP2;P2;SDS_P1;SDS_P2;PMS_P1;PMS_P2;Temp;Humidity;BMP_temperature;BMP_pressure;BME280_temperature;BME280_humidity;BME280_pressure;Samples;Min_cycle;Max_cycle;Signal;HPM_P1;HPM_P2
2023/10/16 00:02:29;;;;;;;0.82;0.30;;;;;;;4.43;94.39;99001.50;10409716;28;20037;-76
2023/10/16 00:07:31;;;;;;;0.35;0.30;;;;;;;4.50;93.74;99010.16;10403053;28;20529;-76
2023/10/16 00:12:36;;;;;;;0.25;0.20;;;;;;;4.56;92.69;99004.69;10391986;28;20048;-75
2023/10/16 00:17:39;;;;;;;1.50;0.40;;;;;;;4.57;92.84;99011.75;10408111;28;20517;-75
2023/10/16 00:22:43;;;;;;;0.57;0.30;;;;;;;4.58;93.03;99024.25;10385268;28;20052;-77
2023/10/16 00:27:47;;;;;;;0.45;0.20;;;;;;;4.56;92.55;99035.41;10421636;28;20455;-75
2023/10/16 00:32:50;;;;;;;0.17;0.17;;;;;;;4.53;92.76;99034.06;10407175;28;20598;-76
2023/10/16 00:37:56;;;;;;;0.45;0.13;;;;;;;4.51;92.44;99036.25;10405670;28;20033;-74
2023/10/16 00:43:11;;;;;;;1.10;0.20;;;;;;;4.45;92.57;99036.53;10426310;28;20057;-76
2023/10/16 00:48:17;;;;;;;0.90;0.32;;;;;;;4.48;93.16;99058.50;10420905;28;20048;-75
2023/10/16 00:53:25;;;;;;;1.13;0.52;;;;;;;4.63;93.81;99070.38;10419223;28;20056;-76
2023/10/16 00:58:29;;;;;;;0.75;0.40;;;;;;;4.59;95.45;99061.19;10397984;28;20413;-76
2023/10/16 01:03:44;;;;;;;0.73;0.30;;;;;;;4.48;95.32;99063.94;10457582;28;20059;-74
2023/10/16 01:08:49;;;;;;;0.20;0.20;;;;;;;4.30;95.06;99071.91;10423271;28;20417;-74
2023/10/16 01:13:54;;;;;;;1.10;0.47;;;;;;;4.19;95.78;99084.72;10419724;28;20048;-74
2023/10/16 01:19:01;;;;;;;1.27;0.50;;;;;;;4.09;94.70;99087.47;10423117;28;20045;-74
2023/10/16 01:24:12;;;;;;;0.73;0.40;;;;;;;4.03;95.35;99088.59;10399051;28;20053;-74
2023/10/16 01:29:15;;;;;;;0.90;0.40;;;;;;;4.01;95.49;99093.47;10450052;28;20501;-74
2023/10/16 01:34:22;;;;;;;0.70;0.40;;;;;;;4.06;95.52;99090.75;10404036;28;20049;-74
2023/10/16 01:44:51;;;;;;;1.05;0.40;;;;;;;4.09;96.30;99092.91;10400108;28;20535;-76
2023/10/16 01:49:55;;;;;;;0.55;0.28;;;;;;;4.16;96.07;99090.69;10432032;28;20037;-76
2023/10/16 01:54:57;;;;;;;1.23;0.60;;;;;;;4.12;95.34;99089.63;10402889;28;20046;-76
2023/10/16 02:00:00;;;;;;;1.20;0.50;;;;;;;4.12;95.26;99085.00;10445931;28;20041;-76
2023/10/16 02:05:04;;;;;;;1.75;0.50;;;;;;;4.10;94.97;99080.94;10434314;28;20535;-76
2023/10/16 02:10:07;;;;;;;0.40;0.40;;;;;;;4.06;94.62;99082.59;10421746;28;20072;-76
2023/10/16 02:15:10;;;;;;;0.20;0.20;;;;;;;4.12;94.50;99089.63;10431150;28;20133;-76
2023/10/16 02:20:13;;;;;;;0.30;0.30;;;;;;;4.19;92.99;99084.72;10462380;28;20042;-74
2023/10/16 02:25:18;;;;;;;0.30;0.30;;;;;;;4.31;93.36;99081.69;10479135;28;20037;-74
2023/10/16 02:35:28;;;;;;;0.47;0.40;;;;;;;4.26;92.77;99054.56;10462258;28;20053;-75
2023/10/16 02:40:32;;;;;;;0.93;0.93;;;;;;;4.26;93.27;99065.41;10451707;28;20060;-76
2023/10/16 02:45:35;;;;;;;0.45;0.40;;;;;;;4.30;93.40;99061.03;10434865;28;20037;-76
2023/10/16 02:50:41;;;;;;;0.50;0.40;;;;;;;4.18;92.32;99055.97;10446225;28;20541;-76
2023/10/16 02:55:49;;;;;;;0.65;0.40;;;;;;;4.14;91.66;99090.97;10464682;28;20531;-76
2023/10/16 03:00:58;;;;;;;0.55;0.20;;;;;;;4.24;91.07;99106.41;10446098;28;20037;-77
2023/10/16 03:06:03;;;;;;;0.32;0.30;;;;;;;4.16;91.12;99077.94;10434087;28;20043;-76
2023/10/16 03:11:13;;;;;;;1.38;0.30;;;;;;;4.06;91.84;99124.13;10429137;28;20037;-76
2023/10/16 03:16:29;;;;;;;0.60;0.50;;;;;;;3.92;93.05;99134.72;10434249;28;20432;-76
2023/10/16 03:21:34;;;;;;;0.85;0.30;;;;;;;3.76;93.35;99133.13;10407945;28;20037;-77
2023/10/16 03:26:42;;;;;;;0.20;0.20;;;;;;;3.78;94.40;99136.38;10420999;28;20042;-76
2023/10/16 03:31:46;;;;;;;0.73;0.20;;;;;;;3.85;94.60;99141.53;10427187;28;20072;-77
2023/10/16 03:36:54;;;;;;;0.43;0.32;;;;;;;3.80;95.07;99144.25;10428560;28;20052;-76
2023/10/16 03:42:00;;;;;;;0.60;0.30;;;;;;;3.78;95.34;99139.09;10430320;28;20040;-77
2023/10/16 03:47:05;;;;;;;1.10;0.57;;;;;;;3.82;95.80;99134.78;10425219;28;20188;-77
2023/10/16 03:52:08;;;;;;;0.75;0.55;;;;;;;3.74;95.50;99124.44;10456414;28;20037;-75
2023/10/16 03:57:11;;;;;;;0.82;0.50;;;;;;;3.70;96.33;99122.56;10460837;28;20036;-75
2023/10/16 04:02:23;;;;;;;0.88;0.40;;;;;;;3.65;96.50;99122.59;10471158;28;20434;-77
2023/10/16 04:07:25;;;;;;;0.90;0.30;;;;;;;3.61;95.63;99119.56;10445802;28;20036;-77
2023/10/16 04:12:33;;;;;;;0.30;0.30;;;;;;;3.73;96.26;99133.69;10444923;28;20033;-77
2023/10/16 04:17:38;;;;;;;0.68;0.32;;;;;;;3.83;96.08;99141.00;10474818;28;20075;-76
2023/10/16 04:22:44;;;;;;;0.50;0.40;;;;;;;3.88;96.19;99139.09;10446880;28;20532;-77
2023/10/16 04:27:50;;;;;;;0.75;0.50;;;;;;;3.93;96.39;99138.25;10448236;28;20052;-77
2023/10/16 04:38:30;;;;;;;2.67;0.50;;;;;;;3.90;97.11;99161.34;10460262;28;20063;-77
2023/10/16 04:48:58;;;;;;;0.80;0.40;;;;;;;3.67;97.83;99172.75;10443807;28;20056;-77
2023/10/16 04:54:13;;;;;;;1.33;0.60;;;;;;;3.75;98.14;99174.09;10448998;28;20041;-77
2023/10/16 05:10:17;;;;;;;1.52;0.60;;;;;;;3.78;98.53;99187.94;10428917;28;20040;-77
2023/10/16 05:15:41;;;;;;;0.75;0.52;;;;;;;3.81;98.23;99198.22;10453458;28;20037;-78
2023/10/16 06:14:20;;;;;;;1.85;0.80;;;;;;;4.72;93.51;99220.88;10463107;28;20053;-77
2023/10/16 06:19:24;;;;;;;0.85;0.70;;;;;;;4.53;94.70;99218.75;10416082;28;20041;-77
2023/10/16 06:24:32;;;;;;;2.17;0.60;;;;;;;4.52;94.93;99228.00;10441660;28;20043;-77
2023/10/16 06:29:40;;;;;;;1.95;0.50;;;;;;;4.43;94.66;99229.66;10441976;28;20040;-75
2023/10/16 06:34:42;;;;;;;3.55;0.80;;;;;;;4.39;95.53;99223.16;10436226;28;20038;-74
2023/10/16 06:39:46;;;;;;;1.25;0.60;;;;;;;4.74;96.50;99219.50;10417847;28;20025;-76
2023/10/16 06:45:09;;;;;;;1.73;0.80;;;;;;;4.85;95.39;99228.41;10440875;28;20436;-75
2023/10/16 06:55:26;;;;;;;1.02;0.70;;;;;;;4.59;96.67;99210.59;10442610;28;20436;-75
2023/10/16 07:00:32;;;;;;;1.05;0.40;;;;;;;6.84;91.74;99212.16;10432484;28;20063;-75
2023/10/16 07:05:45;;;;;;;1.63;0.55;;;;;;;9.30;79.25;99211.22;10452594;28;20424;-76
2023/10/16 07:11:03;;;;;;;2.75;0.80;;;;;;;9.94;75.46;99227.56;10439766;28;20052;-76
2023/10/16 07:16:09;;;;;;;1.27;0.55;;;;;;;6.83;83.38;99245.16;10433519;28;20043;-76
2023/10/16 07:21:17;;;;;;;1.45;0.50;;;;;;;7.07;84.44;99234.22;10471759;28;20047;-76
2023/10/16 07:26:24;;;;;;;1.15;0.60;;;;;;;10.42;75.20;99225.00;10500789;28;20052;-75
2023/10/16 07:31:27;;;;;;;2.20;0.55;;;;;;;9.77;72.74;99224.69;10497138;28;20037;-76
2023/10/16 07:36:31;;;;;;;1.17;0.73;;;;;;;6.88;81.02;99235.00;10530670;28;20070;-76
2023/10/16 07:41:37;;;;;;;2.58;0.52;;;;;;;6.36;85.59;99238.56;10455647;28;20131;-75
2023/10/16 07:46:39;;;;;;;2.13;0.60;;;;;;;5.66;88.43;99248.91;10469950;28;20051;-76
2023/10/16 07:51:45;;;;;;;1.33;0.40;;;;;;;5.52;89.83;99240.56;10488845;28;20035;-75
2023/10/16 07:56:51;;;;;;;0.97;0.57;;;;;;;10.03;76.33;99222.13;10488484;28;20047;-74
2023/10/16 08:01:59;;;;;;;0.88;0.60;;;;;;;12.24;66.69;99228.88;10470705;28;20048;-74
2023/10/16 08:07:04;;;;;;;1.50;0.60;;;;;;;7.75;77.41;99247.47;10454077;28;20408;-75
2023/10/16 08:12:20;;;;;;;1.40;0.70;;;;;;;6.35;84.04;99253.28;10486539;28;20059;-76
2023/10/16 08:17:23;;;;;;;1.05;0.70;;;;;;;5.23;87.26;99266.88;10439151;28;20681;-76
2023/10/16 08:22:26;;;;;;;0.80;0.60;;;;;;;7.01;85.68;99268.94;10469602;28;20504;-75
2023/10/16 08:37:59;;;;;;;1.42;0.90;;;;;;;6.52;84.49;99269.19;10486615;28;20044;-75
2023/10/16 08:43:09;;;;;;;1.35;1.00;;;;;;;6.10;87.23;99269.88;10512855;28;20086;-76
2023/10/16 08:48:17;;;;;;;1.25;0.43;;;;;;;5.42;89.29;99262.41;10486386;28;20072;-75
2023/10/16 08:53:32;;;;;;;0.60;0.60;;;;;;;5.80;90.24;99268.16;10469337;28;20033;-77
2023/10/16 08:58:45;;;;;;;2.15;0.70;;;;;;;6.34;90.14;99268.00;10435171;28;20496;-76
2023/10/16 09:03:56;;;;;;;1.50;0.68;;;;;;;6.19;88.19;99274.41;10468347;28;20051;-75
2023/10/16 09:09:01;;;;;;;0.43;0.32;;;;;;;5.97;88.88;99265.88;10436136;28;20040;-75
2023/10/16 09:14:07;;;;;;;0.65;0.40;;;;;;;6.26;87.83;99293.16;10481213;28;20115;-76
2023/10/16 09:19:14;;;;;;;0.75;0.43;;;;;;;5.67;89.71;99291.38;10484260;28;20095;-77
2023/10/16 09:24:16;;;;;;;0.97;0.50;;;;;;;5.39;91.71;99301.06;10467422;28;20416;-75
2023/10/16 09:29:26;;;;;;;1.42;0.45;;;;;;;5.32;91.72;99292.38;10467502;28;20435;-76
2023/10/16 09:34:30;;;;;;;1.17;0.70;;;;;;;5.19;91.43;99284.81;10434483;28;20519;-75
2023/10/16 09:39:34;;;;;;;1.48;0.60;;;;;;;5.21;91.45;99275.31;10443071;28;20586;-75
2023/10/16 09:44:36;;;;;;;2.70;0.50;;;;;;;5.67;92.07;99281.28;10429830;28;20041;-75
2023/10/16 09:49:40;;;;;;;1.40;0.85;;;;;;;6.01;91.81;99292.25;10425643;28;20524;-75
2023/10/16 09:54:45;;;;;;;0.63;0.40;;;;;;;6.23;87.61;99280.91;10435304;28;20040;-75
2023/10/16 10:00:00;;;;;;;2.25;0.50;;;;;;;6.22;87.42;99281.19;10483803;28;20049;-76
2023/10/16 10:05:09;;;;;;;2.35;0.50;;;;;;;6.17;87.20;99279.31;10449942;28;20041;-75
2023/10/16 10:15:39;;;;;;;0.73;0.60;;;;;;;6.43;86.34;99285.38;10427070;28;20051;-75
2023/10/16 10:20:44;;;;;;;1.83;0.75;;;;;;;6.18;87.60;99299.19;10481690;28;20048;-76
2023/10/16 10:25:46;;;;;;;3.63;0.60;;;;;;;5.87;88.91;99279.53;10466050;28;20099;-76
2023/10/16 10:30:51;;;;;;;3.67;1.30;;;;;;;6.27;89.65;99284.69;10487657;28;20037;-76
2023/10/16 10:36:33;;;;;;;1.98;1.25;;;;;;;6.56;90.22;99286.59;10457088;28;20056;-75
2023/10/16 10:41:54;;;;;;;3.83;1.08;;;;;;;6.32;90.65;99297.44;10437760;28;20067;-76
2023/10/16 10:47:00;;;;;;;0.75;0.73;;;;;;;6.23;88.17;99290.97;10472300;28;20047;-75
2023/10/16 10:52:05;;;;;;;4.57;1.17;;;;;;;6.02;86.89;99288.44;10489293;28;20029;-77
2023/10/16 10:57:15;;;;;;;1.08;0.50;;;;;;;5.71;87.45;99303.31;10449349;28;20512;-78
2023/10/16 11:07:28;;;;;;;0.47;0.30;;;;;;;5.43;89.41;99294.78;10460429;28;20420;-75
2023/10/16 11:12:32;;;;;;;2.25;0.57;;;;;;;5.46;90.64;99301.56;10438184;28;20118;-77
2023/10/16 11:17:37;;;;;;;1.10;0.50;;;;;;;5.47;91.74;99310.53;10467887;28;20061;-73
2023/10/16 11:22:45;;;;;;;1.65;0.63;;;;;;;5.25;91.53;99300.03;10464001;28;20428;-75
2023/10/16 11:27:53;;;;;;;1.45;0.85;;;;;;;5.29;91.60;99292.94;10477257;28;20420;-77
2023/10/16 11:32:55;;;;;;;0.40;0.40;;;;;;;5.37;92.47;99297.78;10449945;28;20040;-74
2023/10/16 11:38:13;;;;;;;1.52;0.40;;;;;;;5.21;89.79;99304.41;10469198;28;20373;-74
2023/10/16 11:43:19;;;;;;;1.48;0.50;;;;;;;5.29;90.59;99296.47;10437921;28;20040;-76
2023/10/16 11:53:31;;;;;;;1.52;0.77;;;;;;;5.39;90.42;99290.19;10451662;28;20515;-77
2023/10/16 11:58:39;;;;;;;1.85;0.80;;;;;;;5.47;89.82;99286.06;10450576;28;20041;-79
2023/10/16 12:03:48;;;;;;;1.23;0.80;;;;;;;5.61;89.06;99290.59;10434411;28;20053;-76
2023/10/16 12:08:59;;;;;;;1.20;0.90;;;;;;;5.67;88.24;99289.47;10449255;28;20516;-76
2023/10/16 12:14:04;;;;;;;1.85;0.80;;;;;;;5.56;87.02;99287.09;10448353;28;20037;-74
2023/10/16 12:19:09;;;;;;;1.10;0.70;;;;;;;5.72;88.38;99288.59;10452855;28;20393;-76
2023/10/16 12:24:12;;;;;;;1.02;0.68;;;;;;;5.66;86.92;99287.84;10440533;28;20049;-76
2023/10/16 12:29:15;;;;;;;1.55;0.70;;;;;;;5.57;84.25;99292.25;10460129;28;20037;-69
2023/10/16 12:34:17;;;;;;;1.45;0.60;;;;;;;5.69;83.50;99295.44;10480269;28;20043;-70
2023/10/16 12:39:30;;;;;;;0.95;0.60;;;;;;;5.89;82.28;99299.91;10472145;28;20037;-72
2023/10/16 12:44:32;;;;;;;0.90;0.55;;;;;;;5.96;81.00;99303.19;10445340;28;20049;-71
2023/10/16 12:49:34;;;;;;;1.08;0.40;;;;;;;5.92;81.51;99298.59;10452173;28;20408;-71
2023/10/16 12:54:43;;;;;;;2.35;0.52;;;;;;;5.93;81.04;99303.75;10470664;28;20119;-79
2023/10/16 12:59:45;;;;;;;1.00;0.50;;;;;;;5.99;81.63;99315.41;10477681;28;20033;-74
2023/10/16 13:04:52;;;;;;;1.33;0.60;;;;;;;5.98;82.35;99308.34;10420401;28;20049;-75
2023/10/16 13:09:54;;;;;;;0.30;0.30;;;;;;;5.89;82.36;99318.16;10444093;28;20044;-79
2023/10/16 13:15:00;;;;;;;0.55;0.50;;;;;;;5.83;82.79;99317.41;10449902;28;20041;-79
2023/10/16 13:20:04;;;;;;;0.95;0.60;;;;;;;5.75;82.86;99316.09;10417879;28;20045;-79
2023/10/16 13:25:11;;;;;;;0.55;0.47;;;;;;;5.76;82.85;99311.47;10415988;28;20044;-76
2023/10/16 13:30:16;;;;;;;0.80;0.52;;;;;;;5.77;82.72;99315.81;10448366;28;20037;-75
2023/10/16 13:35:20;;;;;;;0.75;0.50;;;;;;;5.62;82.94;99316.72;10444567;28;20068;-75
2023/10/16 13:40:28;;;;;;;0.60;0.52;;;;;;;5.66;83.15;99325.13;10449007;28;20045;-75
2023/10/16 13:45:32;;;;;;;1.15;0.73;;;;;;;5.56;83.23;99322.47;10451823;28;20045;-75
2023/10/16 13:50:34;;;;;;;1.02;0.52;;;;;;;5.58;83.24;99339.34;10484891;28;20041;-75
2023/10/16 13:55:37;;;;;;;2.05;0.77;;;;;;;5.67;82.60;99341.16;10427811;28;20069;-75
2023/10/16 14:00:39;;;;;;;2.03;0.60;;;;;;;5.60;82.22;99343.41;10433025;28;20067;-77
2023/10/16 14:05:52;;;;;;;1.35;0.38;;;;;;;5.38;81.40;99341.06;10464537;28;20041;-78
2023/10/16 14:10:57;;;;;;;1.23;0.73;;;;;;;5.25;81.97;99346.28;10474928;28;20040;-78
2023/10/16 14:16:10;;;;;;;2.10;0.90;;;;;;;5.12;81.58;99344.94;10474745;28;20397;-77
2023/10/16 14:21:13;;;;;;;1.60;1.00;;;;;;;4.99;82.56;99353.69;10434359;28;20071;-77
2023/10/16 14:26:22;;;;;;;2.40;1.00;;;;;;;4.95;82.75;99355.31;10416742;28;20535;-77
2023/10/16 14:31:29;;;;;;;3.08;0.90;;;;;;;4.83;83.38;99367.31;10449074;28;20501;-78
2023/10/16 14:36:31;;;;;;;1.85;0.82;;;;;;;4.74;83.04;99370.88;10386831;28;20045;-77
2023/10/16 14:41:37;;;;;;;2.90;0.50;;;;;;;4.66;83.49;99379.56;10396326;28;20045;-78
2023/10/16 14:46:45;;;;;;;1.27;0.65;;;;;;;4.73;83.19;99383.63;10350985;28;20053;-78
2023/10/16 14:51:50;;;;;;;0.85;0.50;;;;;;;4.73;82.33;99390.97;10318927;28;20038;-77
2023/10/16 14:56:54;;;;;;;1.80;0.85;;;;;;;4.67;82.52;99390.16;10350707;28;20170;-78
2023/10/16 15:02:10;;;;;;;0.60;0.40;;;;;;;4.63;82.30;99397.22;10337238;28;20042;-77
2023/10/16 15:07:15;;;;;;;1.38;0.50;;;;;;;4.48;82.34;99402.66;10323200;28;20046;-77
2023/10/16 15:12:19;;;;;;;2.10;0.70;;;;;;;4.36;83.58;99405.66;10341953;28;20497;-77
2023/10/16 15:17:22;;;;;;;2.22;0.50;;;;;;;4.31;83.79;99410.25;10390085;28;20056;-80
2023/10/16 15:22:25;;;;;;;1.08;0.57;;;;;;;4.20;83.48;99410.25;10432961;28;20045;-75
2023/10/16 15:27:30;;;;;;;1.55;0.95;;;;;;;4.16;83.43;99414.56;10394429;28;20129;-75
2023/10/16 15:32:35;;;;;;;1.27;0.80;;;;;;;4.14;83.76;99414.03;10412240;28;20037;-77
2023/10/16 15:37:45;;;;;;;1.77;0.90;;;;;;;4.13;83.95;99420.53;10415383;28;20044;-75
2023/10/16 15:42:52;;;;;;;1.67;1.15;;;;;;;4.14;84.29;99411.31;10414413;28;20038;-75
2023/10/16 15:47:58;;;;;;;1.60;1.10;;;;;;;4.12;84.72;99418.91;10452043;28;20036;-75
2023/10/16 15:53:04;;;;;;;2.72;1.05;;;;;;;4.15;83.89;99421.06;10434238;28;20128;-77
2023/10/16 15:58:07;;;;;;;3.85;1.42;;;;;;;4.15;83.78;99425.69;10436980;28;20041;-76
2023/10/16 16:03:10;;;;;;;3.58;1.40;;;;;;;4.10;84.69;99426.50;10451859;28;20523;-77
2023/10/16 16:08:13;;;;;;;3.28;1.20;;;;;;;4.09;84.06;99422.16;10450095;28;20032;-75
2023/10/16 16:13:15;;;;;;;1.65;1.35;;;;;;;4.11;84.44;99433.56;10434750;28;20052;-77
2023/10/16 16:18:18;;;;;;;4.10;1.13;;;;;;;4.29;84.20;99424.09;10454378;28;20153;-75
2023/10/16 16:23:24;;;;;;;1.60;1.40;;;;;;;4.45;82.82;99427.66;10428495;28;20063;-77
2023/10/16 16:28:27;;;;;;;2.73;1.23;;;;;;;4.47;82.78;99431.72;10485922;28;20068;-76
2023/10/16 16:33:29;;;;;;;1.38;1.20;;;;;;;4.44;83.42;99440.41;10468763;28;20041;-75
2023/10/16 16:38:31;;;;;;;4.10;1.50;;;;;;;4.62;83.42;99438.25;10449804;28;20056;-78
2023/10/16 16:43:33;;;;;;;5.85;1.40;;;;;;;4.76;82.08;99440.16;10457528;28;20040;-76
2023/10/16 16:48:36;;;;;;;5.28;1.63;;;;;;;4.85;82.18;99434.97;10469733;28;20036;-76
2023/10/16 16:53:38;;;;;;;5.78;2.15;;;;;;;4.85;82.70;99443.94;10422770;28;20538;-76
2023/10/16 16:58:41;;;;;;;3.78;1.67;;;;;;;4.85;81.86;99426.81;10446319;28;21420;-77
2023/10/16 17:03:45;;;;;;;4.20;2.05;;;;;;;4.75;82.16;99427.66;10470843;28;20036;-77
2023/10/16 17:08:49;;;;;;;5.75;2.13;;;;;;;4.74;82.55;99430.66;10465150;28;20045;-75
2023/10/16 17:13:53;;;;;;;5.15;2.30;;;;;;;4.60;81.93;99424.13;10416401;28;20500;-77
2023/10/16 17:18:56;;;;;;;1.65;1.30;;;;;;;4.51;81.62;99419.25;10435400;28;20517;-76
2023/10/16 17:24:03;;;;;;;2.58;1.50;;;;;;;4.49;82.09;99420.56;10439930;28;20045;-75
2023/10/16 17:29:07;;;;;;;2.67;1.40;;;;;;;4.58;82.07;99415.44;10426800;28;20501;-75
2023/10/16 17:34:09;;;;;;;1.48;0.98;;;;;;;4.48;81.97;99417.03;10450734;28;20452;-74
2023/10/16 17:39:13;;;;;;;2.53;1.02;;;;;;;4.53;81.68;99418.97;10454001;28;20052;-75
2023/10/16 17:44:17;;;;;;;1.90;1.20;;;;;;;4.66;81.76;99423.03;10435258;28;20140;-76
2023/10/16 17:49:23;;;;;;;3.63;1.65;;;;;;;4.80;80.63;99418.69;10436853;28;20043;-76
2023/10/16 17:54:30;;;;;;;2.78;1.27;;;;;;;4.79;79.86;99419.75;10445252;28;20125;-75
2023/10/16 17:59:32;;;;;;;1.67;1.30;;;;;;;4.79;79.44;99415.16;10444634;28;20037;-76
2023/10/16 18:04:35;;;;;;;3.17;1.27;;;;;;;4.92;78.49;99423.84;10435271;28;20036;-76
2023/10/16 18:09:37;;;;;;;1.20;1.02;;;;;;;4.89;77.70;99419.78;10444543;28;20575;-75
2023/10/16 18:14:39;;;;;;;1.88;1.05;;;;;;;4.79;78.70;99428.72;10432963;28;20052;-77
2023/10/16 18:19:41;;;;;;;6.00;1.30;;;;;;;4.78;78.60;99432.53;10445515;28;20516;-79
2023/10/16 18:24:44;;;;;;;3.13;1.13;;;;;;;4.79;77.92;99439.59;10443984;28;20527;-77
2023/10/16 18:29:46;;;;;;;3.65;1.20;;;;;;;4.72;78.42;99432.81;10471361;28;20424;-75
2023/10/16 18:34:49;;;;;;;3.42;1.10;;;;;;;4.79;78.42;99436.06;10417676;28;20045;-78
2023/10/16 18:39:51;;;;;;;3.28;1.20;;;;;;;4.90;79.11;99450.47;10450271;28;20507;-80
2023/10/16 18:44:54;;;;;;;8.63;3.35;;;;;;;5.01;78.37;99443.94;10467510;28;20052;-76
2023/10/16 18:49:57;;;;;;;1.67;1.10;;;;;;;5.02;78.28;99448.28;10464343;28;20047;-77
2023/10/16 18:54:59;;;;;;;1.85;1.40;;;;;;;5.03;79.32;99444.47;10483671;28;20068;-76
2023/10/16 19:00:03;;;;;;;6.18;1.30;;;;;;;4.98;80.15;99448.00;10468944;28;20037;-74
2023/10/16 19:05:06;;;;;;;4.75;1.10;;;;;;;4.98;81.76;99442.56;10453526;28;20040;-76
2023/10/16 19:10:09;;;;;;;2.65;1.25;;;;;;;5.05;80.77;99448.56;10425337;28;20041;-77
2023/10/16 19:15:11;;;;;;;3.47;1.58;;;;;;;5.05;80.31;99448.56;10434819;28;20037;-77
2023/10/16 19:20:14;;;;;;;3.53;1.45;;;;;;;5.09;79.34;99457.81;10444724;28;20060;-77
2023/10/16 19:25:17;;;;;;;3.67;1.17;;;;;;;5.13;79.38;99456.16;10447944;28;20037;-79
2023/10/16 19:30:19;;;;;;;3.83;1.02;;;;;;;5.26;79.69;99467.56;10460470;28;20040;-78
2023/10/16 19:35:21;;;;;;;2.38;0.95;;;;;;;5.21;79.70;99464.88;10448875;28;20052;-74
2023/10/16 19:40:25;;;;;;;1.45;0.60;;;;;;;5.10;80.14;99464.06;10447245;28;20047;-76
2023/10/16 19:45:30;;;;;;;1.27;0.52;;;;;;;4.96;82.35;99466.50;10432783;28;20033;-75
2023/10/16 19:50:37;;;;;;;1.83;0.60;;;;;;;4.91;83.54;99463.78;10447673;28;20120;-79
2023/10/16 19:55:39;;;;;;;1.63;0.88;;;;;;;4.80;83.59;99460.25;10432966;28;20049;-79
2023/10/16 20:00:42;;;;;;;0.43;0.40;;;;;;;4.73;84.17;99467.88;10427514;28;20041;-78
2023/10/16 20:05:45;;;;;;;0.80;0.52;;;;;;;4.73;84.79;99467.88;10471749;28;20561;-77
2023/10/16 20:10:47;;;;;;;1.70;0.70;;;;;;;4.64;84.53;99471.41;10463920;28;20416;-78
2023/10/16 20:15:55;;;;;;;0.98;0.80;;;;;;;4.64;85.43;99461.34;10433956;28;20079;-80
2023/10/16 20:21:04;;;;;;;1.17;0.70;;;;;;;4.56;85.20;99455.63;10363284;28;20053;-78
2023/10/16 20:26:16;;;;;;;1.15;0.40;;;;;;;4.43;85.94;99465.94;10343827;28;20041;-79
2023/10/16 20:31:27;;;;;;;0.90;0.70;;;;;;;4.36;86.07;99451.00;10356005;28;20037;-78
2023/10/16 20:36:30;;;;;;;1.65;0.75;;;;;;;4.25;87.62;99458.31;10380650;28;20052;-77
2023/10/16 20:41:33;;;;;;;3.28;0.63;;;;;;;4.10;87.52;99455.56;10373762;28;20053;-77
2023/10/16 20:46:38;;;;;;;1.48;0.80;;;;;;;4.12;88.06;99456.09;10364738;28;20041;-75
2023/10/16 20:51:40;;;;;;;2.35;0.95;;;;;;;4.08;88.79;99444.97;10367140;28;20045;-76
2023/10/16 20:56:43;;;;;;;0.85;0.80;;;;;;;4.09;88.83;99454.75;10341657;28;20044;-75
2023/10/16 21:01:48;;;;;;;1.23;0.80;;;;;;;4.12;88.63;99458.81;10365455;28;20041;-75
2023/10/16 21:06:53;;;;;;;1.23;0.75;;;;;;;4.10;87.99;99448.22;10384071;28;20060;-75
2023/10/16 21:11:58;;;;;;;1.33;0.80;;;;;;;4.11;88.21;99454.47;10363669;28;20033;-76
2023/10/16 21:17:05;;;;;;;1.20;1.02;;;;;;;4.11;88.44;99454.47;10359423;28;20045;-76
2023/10/16 21:22:08;;;;;;;4.13;0.70;;;;;;;4.12;88.96;99440.63;10364086;28;20505;-76
2023/10/16 21:27:10;;;;;;;0.90;0.73;;;;;;;4.00;88.31;99452.81;10384942;28;20041;-76
2023/10/16 21:32:12;;;;;;;1.48;0.88;;;;;;;3.85;88.92;99445.44;10318817;28;20049;-78
2023/10/16 21:37:15;;;;;;;4.95;1.33;;;;;;;3.82;89.98;99449.50;10374459;28;20057;-76
2023/10/16 21:42:17;;;;;;;1.30;0.70;;;;;;;3.73;90.24;99455.69;10400815;28;20037;-76
2023/10/16 21:47:20;;;;;;;1.95;0.85;;;;;;;3.69;90.30;99451.91;10366007;28;20042;-77
2023/10/16 21:52:22;;;;;;;3.97;0.95;;;;;;;3.57;89.86;99457.53;10375227;28;20038;-77
2023/10/16 21:57:24;;;;;;;1.73;0.90;;;;;;;3.55;89.81;99459.69;10377864;28;20046;-76
2023/10/16 22:02:27;;;;;;;1.67;0.60;;;;;;;3.50;89.21;99460.50;10348532;28;20038;-76
2023/10/16 22:07:30;;;;;;;1.90;0.85;;;;;;;3.52;88.07;99462.94;10351478;28;20045;-77
2023/10/16 22:12:32;;;;;;;3.13;0.85;;;;;;;3.43;87.33;99451.75;10405793;28;20040;-75
2023/10/16 22:17:35;;;;;;;0.52;0.40;;;;;;;3.39;86.86;99463.41;10408721;28;20050;-77
2023/10/16 22:22:37;;;;;;;0.60;0.52;;;;;;;3.29;86.97;99456.00;10399007;28;20041;-76
2023/10/16 22:27:40;;;;;;;0.70;0.60;;;;;;;3.23;86.51;99454.34;10373477;28;20050;-75
2023/10/16 22:32:42;;;;;;;0.43;0.32;;;;;;;3.13;86.55;99451.59;10373913;28;20034;-77
2023/10/16 22:37:44;;;;;;;0.43;0.43;;;;;;;3.07;86.61;99445.31;10407224;28;20045;-76
2023/10/16 22:42:48;;;;;;;0.95;0.60;;;;;;;2.96;87.37;99455.28;10374884;28;20053;-76
2023/10/16 22:47:51;;;;;;;1.15;0.63;;;;;;;2.87;86.98;99450.59;10343373;28;20052;-77
2023/10/16 22:52:54;;;;;;;2.35;0.60;;;;;;;2.75;87.41;99453.47;10407911;28;20053;-77
2023/10/16 22:57:57;;;;;;;1.00;0.60;;;;;;;2.70;87.65;99443.44;10390376;28;20053;-76
2023/10/16 23:02:59;;;;;;;2.33;0.90;;;;;;;2.64;87.91;99451.78;10389687;28;20504;-77
2023/10/16 23:08:05;;;;;;;0.88;0.60;;;;;;;2.67;88.45;99453.97;10407225;28;20042;-77
2023/10/16 23:13:23;;;;;;;2.13;0.80;;;;;;;2.71;88.48;99449.66;10391092;28;20042;-76
2023/10/16 23:18:28;;;;;;;2.83;0.65;;;;;;;2.87;88.97;99456.00;10384096;28;20049;-76
2023/10/16 23:23:30;;;;;;;1.70;0.93;;;;;;;2.98;88.68;99455.03;10366077;28;20038;-77
2023/10/16 23:28:37;;;;;;;1.40;0.60;;;;;;;3.10;88.18;99447.50;10335977;28;20128;-77
2023/10/16 23:33:40;;;;;;;1.47;0.70;;;;;;;3.19;87.50;99453.25;10333727;28;20638;-77
2023/10/16 23:38:45;;;;;;;0.63;0.60;;;;;;;3.21;87.41;99448.38;10367386;28;20033;-76
2023/10/16 23:43:59;;;;;;;1.63;0.35;;;;;;;3.25;87.27;99452.19;10362233;28;20088;-76
2023/10/16 23:49:09;;;;;;;0.98;0.50;;;;;;;3.29;86.26;99445.97;10342876;28;20053;-76
2023/10/16 23:54:55;;;;;;;0.88;0.40;;;;;;;3.29;86.55;99447.88;10389853;28;20449;-77
2023/10/16 23:59:48;;;;;;;0.70;0.30;;;;;;;3.28;85.74;99452.47;10369276;28;20049;-76
